createdAt,value
2018-09-09T00:00:03.416Z,0
2018-09-09T00:05:02.751Z,0
2018-09-09T00:10:03.474Z,0
2018-09-09T00:15:03.025Z,0
2018-09-09T00:20:02.694Z,0
2018-09-09T00:25:03.358Z,0
2018-09-09T00:30:02.998Z,0
2018-09-09T00:35:02.606Z,0
2018-09-09T00:40:03.393Z,0
2018-09-09T00:45:02.952Z,0
2018-09-09T00:50:02.577Z,2
2018-09-09T00:55:03.323Z,0
2018-09-09T01:00:02.889Z,0
2018-09-09T01:05:03.559Z,0
2018-09-09T01:10:03.300Z,1
2018-09-09T01:15:03.409Z,0
2018-09-09T01:20:02.978Z,0
2018-09-09T01:25:02.630Z,0
2018-09-09T01:30:03.288Z,0
2018-09-09T01:35:02.899Z,0
2018-09-09T01:40:03.533Z,2
2018-09-09T01:45:03.213Z,2
2018-09-09T01:50:02.849Z,2
2018-09-09T01:55:03.445Z,2
2018-09-09T02:00:03.091Z,2
2018-09-09T02:05:02.691Z,1
2018-09-09T02:10:03.316Z,2
2018-09-09T02:15:02.897Z,2
2018-09-09T02:20:03.508Z,2
2018-09-09T02:25:03.122Z,3
2018-09-09T02:30:02.780Z,3
2018-09-09T02:35:03.426Z,0
2018-09-09T02:40:03.129Z,1
2018-09-09T02:45:02.792Z,1
2018-09-09T02:50:03.383Z,0
2018-09-09T02:55:02.900Z,4
2018-09-09T03:00:03.848Z,2
2018-09-09T03:05:03.521Z,1
2018-09-09T03:10:03.182Z,2
2018-09-09T03:15:02.781Z,0
2018-09-09T03:20:03.866Z,1
2018-09-09T03:25:03.470Z,0
2018-09-09T03:30:03.137Z,0
2018-09-09T03:35:02.662Z,2
2018-09-09T03:40:03.442Z,2
2018-09-09T03:45:02.930Z,0
2018-09-09T03:50:03.521Z,0
2018-09-09T03:55:03.259Z,2
2018-09-09T04:00:02.842Z,2
2018-09-09T04:05:03.406Z,2
2018-09-09T04:10:03.474Z,1
2018-09-09T04:15:03.406Z,0
2018-09-09T04:20:02.955Z,2
2018-09-09T04:25:03.582Z,3
2018-09-09T04:30:02.600Z,3
2018-09-09T04:35:03.335Z,2
2018-09-09T04:40:02.935Z,1
2018-09-09T04:45:02.638Z,0
2018-09-09T04:50:03.341Z,0
2018-09-09T04:55:02.862Z,3
2018-09-09T05:00:03.543Z,2
2018-09-09T05:05:03.022Z,3
2018-09-09T05:10:02.766Z,3
2018-09-09T05:15:03.529Z,3
2018-09-09T05:20:03.144Z,1
2018-09-09T05:25:02.833Z,3
2018-09-09T05:30:03.510Z,3
2018-09-09T05:35:03.055Z,2
2018-09-09T05:40:02.716Z,0
2018-09-09T05:45:03.358Z,3
2018-09-09T05:50:02.960Z,2
2018-09-09T05:55:02.692Z,2
2018-09-09T06:00:03.418Z,3
2018-09-09T06:05:03.020Z,2
2018-09-09T06:10:02.710Z,2
2018-09-09T06:15:03.311Z,2
2018-09-09T06:20:03.054Z,2
2018-09-09T06:25:02.769Z,2
2018-09-09T06:30:03.367Z,2
2018-09-09T06:35:02.975Z,3
2018-09-09T06:40:02.758Z,2
2018-09-09T06:45:03.424Z,2
2018-09-09T06:50:03.025Z,2
2018-09-09T06:55:02.825Z,3
2018-09-09T07:00:02.889Z,2
2018-09-09T07:05:03.548Z,2
2018-09-09T07:10:03.150Z,0
2018-09-09T07:15:02.754Z,0
2018-09-09T07:20:03.336Z,2
2018-09-09T07:25:02.915Z,2
2018-09-09T07:30:03.703Z,0
2018-09-09T07:35:03.386Z,2
2018-09-09T07:40:03.069Z,2
2018-09-09T07:45:02.693Z,2
2018-09-09T07:50:03.281Z,3
2018-09-09T07:55:02.950Z,2
2018-09-09T08:00:02.629Z,2
2018-09-09T08:05:03.181Z,3
2018-09-09T08:10:02.731Z,1
2018-09-09T08:15:03.367Z,3
2018-09-09T08:20:02.952Z,3
2018-09-09T08:25:02.639Z,3
2018-09-09T08:30:03.224Z,2
2018-09-09T08:35:02.929Z,2
2018-09-09T08:40:02.660Z,2
2018-09-09T08:45:03.269Z,1
2018-09-09T08:50:02.927Z,2
2018-09-09T08:55:02.713Z,3
2018-09-09T09:00:03.358Z,2
2018-09-09T09:05:03.026Z,6
2018-09-09T09:10:02.612Z,6
2018-09-09T09:15:03.262Z,3
2018-09-09T09:20:02.835Z,4
2018-09-09T09:25:03.393Z,6
2018-09-09T09:30:02.958Z,9
2018-09-09T09:35:02.772Z,4
2018-09-09T09:40:03.438Z,4
2018-09-09T09:45:02.971Z,4
2018-09-09T09:50:02.828Z,4
2018-09-09T09:55:03.634Z,6
2018-09-09T10:00:03.377Z,8
2018-09-09T10:05:03.093Z,6
2018-09-09T10:10:02.734Z,7
2018-09-09T10:15:03.714Z,6
2018-09-09T10:20:03.471Z,2
2018-09-09T10:25:03.123Z,6
2018-09-09T10:30:03.060Z,6
2018-09-09T10:35:02.871Z,5
2018-09-09T10:40:03.546Z,5
2018-09-09T10:45:03.174Z,3
2018-09-09T10:50:02.808Z,4
2018-09-09T10:55:03.646Z,7
2018-09-09T11:00:03.180Z,7
2018-09-09T11:05:02.832Z,6
2018-09-09T11:10:03.500Z,5
2018-09-09T11:15:02.979Z,7
2018-09-09T11:20:02.689Z,7
2018-09-09T11:25:03.459Z,5
2018-09-09T11:30:03.437Z,5
2018-09-09T11:35:03.381Z,6
2018-09-09T11:40:02.985Z,4
2018-09-09T11:45:02.590Z,7
2018-09-09T11:50:03.173Z,1
2018-09-09T11:55:02.766Z,8
2018-09-09T12:00:03.440Z,3
2018-09-09T12:05:03.020Z,4
2018-09-09T12:10:02.677Z,5
2018-09-09T12:15:03.301Z,6
2018-09-09T12:20:02.914Z,5
2018-09-09T12:25:02.530Z,5
2018-09-09T12:30:03.382Z,6
2018-09-09T12:35:03.147Z,6
2018-09-09T12:40:02.892Z,7
2018-09-09T12:45:02.640Z,4
2018-09-09T12:50:03.320Z,6
2018-09-09T12:55:02.803Z,9
2018-09-09T13:00:03.429Z,4
2018-09-09T13:05:02.998Z,6
2018-09-09T13:10:02.723Z,5
2018-09-09T13:15:03.195Z,6
2018-09-09T13:20:02.735Z,3
2018-09-09T13:25:03.375Z,4
2018-09-09T13:30:02.934Z,6
2018-09-09T13:35:02.596Z,5
2018-09-09T13:40:03.306Z,5
2018-09-09T13:45:02.884Z,7
2018-09-09T13:50:03.528Z,6
2018-09-09T13:55:03.002Z,5
2018-09-09T14:00:02.708Z,7
2018-09-09T14:05:03.381Z,0
2018-09-09T14:10:03.090Z,6
2018-09-09T14:15:02.763Z,5
2018-09-09T14:20:03.460Z,3
2018-09-09T14:25:02.986Z,5
2018-09-09T14:30:03.605Z,5
2018-09-09T14:35:03.246Z,5
2018-09-09T14:40:02.914Z,6
2018-09-09T14:45:03.525Z,7
2018-09-09T14:50:03.054Z,6
2018-09-09T14:55:02.700Z,5
2018-09-09T15:00:03.412Z,6
2018-09-09T15:05:02.992Z,2
2018-09-09T15:10:02.665Z,7
2018-09-09T15:15:03.326Z,4
2018-09-09T15:20:02.859Z,5
2018-09-09T15:25:03.398Z,3
2018-09-09T15:30:02.957Z,4
2018-09-09T15:35:02.712Z,8
2018-09-09T15:40:03.944Z,5
2018-09-09T15:45:02.837Z,4
2018-09-09T15:50:03.526Z,5
2018-09-09T15:55:03.166Z,5
2018-09-09T16:00:02.885Z,4
2018-09-09T16:05:03.605Z,7
2018-09-09T16:10:03.284Z,4
2018-09-09T16:15:02.940Z,5
2018-09-09T16:20:03.517Z,6
2018-09-09T16:25:03.162Z,5
2018-09-09T16:30:02.661Z,4
2018-09-09T16:35:03.208Z,4
2018-09-09T16:40:02.909Z,4
2018-09-09T16:45:03.527Z,3
2018-09-09T16:50:03.252Z,4
2018-09-09T16:55:02.824Z,2
2018-09-09T17:00:03.369Z,1
2018-09-09T17:05:02.903Z,2
2018-09-09T17:10:03.526Z,3
2018-09-09T17:15:03.129Z,2
2018-09-09T17:20:02.771Z,2
2018-09-09T17:25:03.412Z,0
2018-09-09T17:30:03.004Z,1
2018-09-09T17:35:02.609Z,0
2018-09-09T17:40:03.223Z,0
2018-09-09T17:45:02.831Z,0
2018-09-09T17:50:03.444Z,0
2018-09-09T17:55:03.018Z,0
2018-09-09T18:00:02.658Z,0
2018-09-09T18:05:03.176Z,0
2018-09-09T18:10:02.739Z,0
2018-09-09T18:15:03.284Z,0
2018-09-09T18:20:02.944Z,0
2018-09-09T18:25:03.539Z,0
2018-09-09T18:30:03.072Z,0
2018-09-09T18:35:03.004Z,0
2018-09-09T18:40:02.910Z,0
2018-09-09T18:45:03.174Z,0
2018-09-09T18:50:02.964Z,0
2018-09-09T18:55:03.525Z,0
2018-09-09T19:00:03.403Z,0
2018-09-09T19:05:03.235Z,0
2018-09-09T19:10:02.895Z,0
2018-09-09T19:15:03.485Z,0
2018-09-09T19:20:03.058Z,0
2018-09-09T19:25:02.641Z,0
2018-09-09T19:30:03.356Z,0
2018-09-09T19:35:02.959Z,0
2018-09-09T19:40:02.572Z,0
2018-09-09T19:45:03.167Z,0
2018-09-09T19:50:02.831Z,0
2018-09-09T19:55:03.381Z,0
2018-09-09T20:00:03.133Z,0
2018-09-09T20:05:02.808Z,0
2018-09-09T20:10:03.472Z,0
2018-09-09T20:15:03.310Z,0
2018-09-09T20:20:03.161Z,0
2018-09-09T20:25:02.771Z,0
2018-09-09T20:30:03.584Z,0
2018-09-09T20:35:03.145Z,0
2018-09-09T20:40:02.765Z,0
2018-09-09T20:45:03.200Z,0
2018-09-09T20:50:02.779Z,0
2018-09-09T20:55:03.367Z,0
2018-09-09T21:00:02.955Z,0
2018-09-09T21:05:03.480Z,0
2018-09-09T21:10:03.061Z,0
2018-09-09T21:15:02.665Z,0
2018-09-09T21:20:03.244Z,0
2018-09-09T21:25:02.822Z,0
2018-09-09T21:30:03.427Z,0
2018-09-09T21:35:03.016Z,0
2018-09-09T21:40:02.602Z,0
2018-09-09T21:45:03.247Z,0
2018-09-09T21:50:02.761Z,0
2018-09-09T21:55:03.406Z,0
2018-09-09T22:00:03.031Z,0
2018-09-09T22:05:02.647Z,0
2018-09-09T22:10:03.306Z,0
2018-09-09T22:15:02.772Z,0
2018-09-09T22:20:03.666Z,0
2018-09-09T22:25:03.257Z,0
2018-09-09T22:30:02.954Z,0
2018-09-09T22:35:02.634Z,0
2018-09-09T22:40:03.158Z,0
2018-09-09T22:45:02.710Z,0
2018-09-09T22:50:03.239Z,0
2018-09-09T22:55:02.775Z,0
2018-09-09T23:00:03.425Z,0
2018-09-09T23:05:03.249Z,0
2018-09-09T23:10:02.822Z,0
2018-09-09T23:15:03.460Z,0
2018-09-09T23:20:03.128Z,0
2018-09-09T23:25:02.667Z,0
2018-09-09T23:30:03.239Z,0
2018-09-09T23:35:02.763Z,0
2018-09-09T23:40:03.364Z,0
2018-09-09T23:45:02.933Z,2
2018-09-09T23:50:02.523Z,4
2018-09-09T23:55:03.120Z,2
